Capitol Logistics 7482

Operating for MZN



KSBD
San Bernardino International Airport
San Bernardino, California
KAFW
Fort Worth Alliance Airport
Fort Worth, Texas

Activity Log

Date Flight Route Aircraft Duration
No Flights Yet

Route Details

Aircraft Information
Primary: Boeing 767-300BDSF
Backup: Boeing 757-200SF
Route Data
Distance: 1017nm
Duration: 2h 27m
Recm'd Route: PSP T306 BLH J65 CME J166 DUMPS HNKER WESAT2
Origin Wx: KSBD 141950Z 29004KT 7SM BKN043 19/04 A2998
Dest. Wx: KAFW 142019Z 05014KT 10SM BKN026 BKN100 BKN250 21/13 A3001 RMK AO2 T02110128 $
Notes: